Altamont, Kansas
Current Conditions -  °F | °C
As of 5:52 AM on Thursday 27 Nov 2014 (Local Time) from KPPF Reporting Station
Clear Clear  
Wind Chill: 11°   Ceiling: Unl
Heat Index: 19°   Visibility: 9mi
Dew Point: 17°   Wind: 6mph
Humidity: 92%   Direction: 310°NW
Pressure: 30.51"   Gusts: NA
Location:  37.19°N, 95.3°W
Report Text: KPPF 271152Z AUTO 31005KT 9SM CLR M07/M08 A3051 RMK AO2 SLP342 T10721083 11017 21078 53012
Loading
Personal Weather Stations






























Interactive Weather Map New forecast layout! Learn more

10-Day Weather Forecast

Advertisements
Track Severe Weather on mobile